createdAt,value
2018-01-30T00:58:03.309Z,4.00
2018-01-30T01:00:29.486Z,3.97
2018-01-30T01:02:55.701Z,3.93
2018-01-30T01:05:21.979Z,3.89
2018-01-30T01:07:48.149Z,3.84
2018-01-30T01:10:14.308Z,3.80
2018-01-30T01:12:40.503Z,3.78
2018-01-30T01:15:06.772Z,3.76
2018-01-30T01:17:33.000Z,3.77
2018-01-30T01:19:59.142Z,3.78
2018-01-30T01:22:25.308Z,3.79
2018-01-30T01:24:51.560Z,3.78
2018-01-30T01:27:17.982Z,3.75
2018-01-30T01:29:45.155Z,3.75
2018-01-30T01:32:11.471Z,3.76
2018-01-30T01:34:37.787Z,3.79
2018-01-30T01:37:04.118Z,3.76
2018-01-30T01:39:30.261Z,3.74
2018-01-30T01:41:56.415Z,3.72
2018-01-30T01:44:22.633Z,3.68
2018-01-30T01:46:48.823Z,3.64
2018-01-30T01:49:14.968Z,3.58
2018-01-30T01:51:41.150Z,3.54
2018-01-30T01:54:07.297Z,3.49
2018-01-30T01:56:33.456Z,3.44
2018-01-30T01:58:59.619Z,3.40
2018-01-30T02:01:25.772Z,3.34
2018-01-30T02:03:51.891Z,3.32
2018-01-30T02:06:18.102Z,3.29
2018-01-30T02:08:44.269Z,3.25
2018-01-30T02:11:10.449Z,3.21
2018-01-30T02:13:36.658Z,3.17
2018-01-30T02:16:02.943Z,3.14
2018-01-30T02:18:29.077Z,3.09
2018-01-30T02:20:55.293Z,3.07
2018-01-30T02:23:21.455Z,3.04
2018-01-30T02:25:47.603Z,3.02
2018-01-30T02:28:13.796Z,2.99
2018-01-30T02:30:39.940Z,2.96
2018-01-30T02:33:06.628Z,2.91
2018-01-30T02:35:34.028Z,2.90
2018-01-30T02:38:00.188Z,2.88
2018-01-30T02:40:26.346Z,2.83
2018-01-30T02:42:52.530Z,2.78
2018-01-30T02:45:18.711Z,2.77
2018-01-30T02:47:44.844Z,2.79
2018-01-30T02:50:11.034Z,2.79
2018-01-30T02:52:37.235Z,2.81
2018-01-30T02:55:04.415Z,2.80
2018-01-30T02:57:30.575Z,2.77
2018-01-30T02:59:56.721Z,2.76
2018-01-30T03:02:22.856Z,2.73
2018-01-30T03:04:49.042Z,2.69
2018-01-30T03:07:15.168Z,2.64
2018-01-30T03:09:41.382Z,2.60
2018-01-30T03:12:07.583Z,2.57
2018-01-30T03:14:33.754Z,2.54
2018-01-30T03:16:59.939Z,2.54
2018-01-30T03:19:26.137Z,2.55
2018-01-30T03:21:52.293Z,2.53
2018-01-30T03:24:18.415Z,2.52
2018-01-30T03:26:44.664Z,2.52
2018-01-30T03:29:10.822Z,2.49
2018-01-30T03:31:36.956Z,2.49
2018-01-30T03:34:03.183Z,2.46
2018-01-30T03:36:29.328Z,2.48
2018-01-30T03:38:55.485Z,2.48
2018-01-30T03:41:21.620Z,2.50
2018-01-30T03:43:47.796Z,2.51
2018-01-30T03:46:13.943Z,2.52
2018-01-30T03:48:40.129Z,2.53
2018-01-30T03:51:06.287Z,2.53
2018-01-30T03:53:32.429Z,2.51
2018-01-30T03:55:58.681Z,2.47
2018-01-30T03:58:24.831Z,2.55
2018-01-30T04:00:50.968Z,2.58
2018-01-30T04:03:17.125Z,2.57
2018-01-30T04:05:43.281Z,2.56
2018-01-30T04:08:09.418Z,2.54
2018-01-30T04:10:35.613Z,2.50
2018-01-30T04:13:01.766Z,2.48
2018-01-30T04:15:27.937Z,2.45
2018-01-30T04:17:54.230Z,2.41
2018-01-30T04:20:20.434Z,2.37
2018-01-30T04:22:46.597Z,2.34
2018-01-30T04:25:12.759Z,2.33
2018-01-30T04:27:38.936Z,2.34
2018-01-30T04:30:05.108Z,2.33
2018-01-30T04:32:31.336Z,2.30
2018-01-30T04:34:57.481Z,2.28
2018-01-30T04:37:23.652Z,2.23
2018-01-30T04:39:49.903Z,2.19
2018-01-30T04:42:16.912Z,2.15
2018-01-30T04:44:43.069Z,2.14
2018-01-30T04:47:09.342Z,2.08
2018-01-30T04:49:35.492Z,2.06
2018-01-30T04:52:01.624Z,2.04
2018-01-30T04:54:27.829Z,2.04
2018-01-30T04:56:53.976Z,2.03
2018-01-30T04:59:20.118Z,1.99
2018-01-30T05:01:46.287Z,1.97
2018-01-30T05:04:12.441Z,1.94
2018-01-30T05:06:38.609Z,1.92
2018-01-30T05:09:04.834Z,1.91
2018-01-30T05:11:30.999Z,1.89
2018-01-30T05:13:57.162Z,1.89
2018-01-30T05:16:23.366Z,1.92
2018-01-30T05:18:49.610Z,1.93
2018-01-30T05:21:15.760Z,1.91
2018-01-30T05:23:41.965Z,1.89
2018-01-30T05:26:08.119Z,1.89
2018-01-30T05:28:34.285Z,1.87
2018-01-30T05:31:00.461Z,1.86
2018-01-30T05:33:26.632Z,1.84
2018-01-30T05:35:52.786Z,1.83
2018-01-30T05:38:18.953Z,1.84
2018-01-30T05:40:45.107Z,1.86
2018-01-30T05:43:11.257Z,1.87
2018-01-30T05:45:37.425Z,1.88
2018-01-30T05:48:03.684Z,1.88
2018-01-30T05:50:29.863Z,1.88
2018-01-30T05:52:56.095Z,1.89
2018-01-30T05:55:22.246Z,1.86
2018-01-30T05:57:48.400Z,1.86
2018-01-30T06:00:14.572Z,1.86
2018-01-30T06:02:40.724Z,1.87
2018-01-30T06:05:06.880Z,1.86
2018-01-30T06:07:33.029Z,1.87
2018-01-30T06:09:59.203Z,1.86
2018-01-30T06:12:26.344Z,1.86
2018-01-30T06:14:52.472Z,1.89
2018-01-30T06:17:18.799Z,1.92
2018-01-30T06:19:45.040Z,1.93
2018-01-30T06:22:11.201Z,1.93
2018-01-30T06:24:37.431Z,1.96
2018-01-30T06:27:03.591Z,1.97
2018-01-30T06:29:29.756Z,1.98
2018-01-30T06:31:56.676Z,1.99
2018-01-30T06:34:22.879Z,1.94
2018-01-30T06:36:49.194Z,1.92
2018-01-30T06:39:16.914Z,1.88
2018-01-30T06:41:43.067Z,1.83
2018-01-30T06:44:09.194Z,1.78
2018-01-30T06:46:35.398Z,1.74
2018-01-30T06:49:01.646Z,1.70
2018-01-30T06:51:27.890Z,1.67
2018-01-30T06:53:54.093Z,1.65
2018-01-30T06:56:20.295Z,1.64
2018-01-30T06:58:46.483Z,1.64
2018-01-30T07:01:12.655Z,1.65
2018-01-30T07:03:38.777Z,1.67
2018-01-30T07:06:04.945Z,1.70
2018-01-30T07:08:31.121Z,1.71
2018-01-30T07:10:57.275Z,1.72
2018-01-30T07:13:23.497Z,1.73
2018-01-30T07:15:49.664Z,1.76
2018-01-30T07:18:15.880Z,1.78
2018-01-30T07:20:42.166Z,1.78
2018-01-30T07:23:08.785Z,1.79
2018-01-30T07:25:35.015Z,1.79
2018-01-30T07:28:01.243Z,1.79
2018-01-30T07:30:27.372Z,1.81
2018-01-30T07:32:53.537Z,1.84
2018-01-30T07:35:19.769Z,1.86
2018-01-30T07:37:45.905Z,1.85
2018-01-30T07:40:12.036Z,1.85
2018-01-30T07:42:38.248Z,1.87
2018-01-30T07:45:04.419Z,1.89
2018-01-30T07:47:30.617Z,1.90
2018-01-30T07:49:56.923Z,1.91
2018-01-30T07:52:23.092Z,1.92
2018-01-30T07:54:49.364Z,1.93
2018-01-30T07:57:15.590Z,1.93
2018-01-30T07:59:41.746Z,1.93
2018-01-30T08:02:07.895Z,1.92
2018-01-30T08:04:34.141Z,1.94
2018-01-30T08:07:01.199Z,1.95
2018-01-30T08:09:27.339Z,1.99
2018-01-30T08:11:53.545Z,2.02
2018-01-30T08:14:19.693Z,2.04
2018-01-30T08:16:45.872Z,2.06
2018-01-30T08:19:12.097Z,2.08
2018-01-30T08:21:38.312Z,2.11
2018-01-30T08:24:04.489Z,2.16
2018-01-30T08:26:30.634Z,2.20
2018-01-30T08:28:56.826Z,2.24
2018-01-30T08:31:22.998Z,2.31
2018-01-30T08:33:49.194Z,2.36
2018-01-30T08:36:15.356Z,2.41
2018-01-30T08:38:41.551Z,2.47
2018-01-30T08:41:07.712Z,2.55
2018-01-30T08:43:33.842Z,2.61
2018-01-30T08:46:00.048Z,2.67
2018-01-30T08:48:26.282Z,2.72
2018-01-30T08:50:52.498Z,2.80
2018-01-30T08:53:18.711Z,2.87
2018-01-30T08:55:45.176Z,2.96
2018-01-30T08:58:11.478Z,3.05
2018-01-30T09:00:37.704Z,3.25
2018-01-30T09:03:03.840Z,3.63
2018-01-30T09:05:30.007Z,4.04
2018-01-30T09:07:56.212Z,4.20
2018-01-30T09:10:22.374Z,4.38
2018-01-30T09:12:48.601Z,4.49
2018-01-30T09:15:14.933Z,4.47
2018-01-30T09:17:41.157Z,4.39
2018-01-30T09:20:07.467Z,4.32
2018-01-30T09:22:33.594Z,4.32
2018-01-30T09:24:59.735Z,4.37
2018-01-30T09:27:25.945Z,4.46
2018-01-30T09:29:52.154Z,4.50
2018-01-30T09:32:18.274Z,4.54
2018-01-30T09:34:44.455Z,4.56
2018-01-30T09:37:10.628Z,4.59
2018-01-30T09:39:36.816Z,4.63
2018-01-30T09:42:03.018Z,4.66
2018-01-30T09:44:29.220Z,4.70
2018-01-30T09:46:55.433Z,4.71
2018-01-30T09:49:21.672Z,4.79
2018-01-30T09:51:47.824Z,4.84
2018-01-30T09:54:14.006Z,4.93
2018-01-30T09:56:40.149Z,4.97
2018-01-30T09:59:06.337Z,5.04
2018-01-30T10:01:32.567Z,5.13
2018-01-30T10:03:58.739Z,5.19
2018-01-30T10:06:24.894Z,5.25
2018-01-30T10:08:51.080Z,5.36
2018-01-30T10:11:17.261Z,5.43
2018-01-30T10:13:43.517Z,5.45
2018-01-30T10:16:09.710Z,5.53
2018-01-30T10:18:37.131Z,5.57
2018-01-30T10:21:03.340Z,5.63
2018-01-30T10:23:30.107Z,5.71
2018-01-30T10:25:56.355Z,5.78
2018-01-30T10:28:23.188Z,5.83
2018-01-30T10:30:49.387Z,5.86
2018-01-30T10:33:15.751Z,5.91
2018-01-30T10:35:41.879Z,5.94
2018-01-30T10:38:08.055Z,5.98
2018-01-30T10:40:34.217Z,6.05
2018-01-30T10:43:00.403Z,6.09
2018-01-30T10:45:26.723Z,6.17
2018-01-30T10:50:53.936Z,6.30
2018-01-30T10:53:26.706Z,6.39
2018-01-30T10:55:53.204Z,6.46
2018-01-30T10:58:28.647Z,6.54
2018-01-30T11:01:03.395Z,6.58
2018-01-30T11:03:32.513Z,6.65
2018-01-30T11:06:00.852Z,6.69
2018-01-30T11:08:28.663Z,6.73
2018-01-30T11:10:56.317Z,6.81
2018-01-30T11:13:24.272Z,6.87
2018-01-30T11:15:55.662Z,6.94
2018-01-30T11:18:24.004Z,6.95
2018-01-30T11:20:51.726Z,6.93
2018-01-30T11:23:19.348Z,6.94
2018-01-30T11:25:47.072Z,6.97
2018-01-30T11:28:14.332Z,7.00
2018-01-30T11:30:43.290Z,7.11
2018-01-30T11:33:11.333Z,7.11
2018-01-30T11:35:40.568Z,7.10
2018-01-30T11:38:08.831Z,7.09
2018-01-30T11:40:37.567Z,7.08
2018-01-30T11:43:05.246Z,7.10
2018-01-30T11:48:26.751Z,7.22
2018-01-30T11:50:56.775Z,7.25
2018-01-30T11:53:26.279Z,7.25
2018-01-30T11:55:52.460Z,7.26
2018-01-30T11:58:18.652Z,7.28
2018-01-30T12:00:44.876Z,7.28
2018-01-30T12:03:11.030Z,7.35
2018-01-30T12:05:37.269Z,7.43
2018-01-30T12:08:03.506Z,7.50
2018-01-30T12:10:29.687Z,7.52
2018-01-30T12:12:55.841Z,7.57
2018-01-30T12:15:22.105Z,7.67
2018-01-30T12:17:48.341Z,7.70
2018-01-30T12:20:14.533Z,7.75
2018-01-30T12:22:40.759Z,7.79
2018-01-30T12:25:06.906Z,7.83
2018-01-30T12:27:33.067Z,7.84
2018-01-30T12:29:59.265Z,7.90
2018-01-30T12:32:25.405Z,7.95
2018-01-30T12:34:51.616Z,7.98
2018-01-30T12:37:17.776Z,8.01
2018-01-30T12:39:43.982Z,8.03
2018-01-30T12:42:10.213Z,8.04
2018-01-30T12:44:36.372Z,8.11
2018-01-30T12:47:02.563Z,8.09
2018-01-30T12:49:28.783Z,8.13
2018-01-30T12:51:55.903Z,8.19
2018-01-30T12:54:22.065Z,8.22
2018-01-30T12:56:48.314Z,8.33
2018-01-30T12:59:14.508Z,8.43
2018-01-30T13:01:40.640Z,8.48
2018-01-30T13:04:06.836Z,8.45
2018-01-30T13:06:32.966Z,8.46
2018-01-30T13:08:59.152Z,8.39
2018-01-30T13:11:25.338Z,8.43
2018-01-30T13:13:51.549Z,8.42
2018-01-30T13:16:17.721Z,8.37
2018-01-30T13:18:43.918Z,8.42
2018-01-30T13:21:10.773Z,8.48
2018-01-30T13:23:37.920Z,8.56
2018-01-30T13:26:04.087Z,8.62
2018-01-30T13:28:30.207Z,8.68
2018-01-30T13:30:56.341Z,8.72
2018-01-30T13:33:22.512Z,8.73
2018-01-30T13:35:48.703Z,8.73
2018-01-30T13:38:14.911Z,8.77
2018-01-30T13:40:41.142Z,8.76
2018-01-30T13:43:07.348Z,8.78
2018-01-30T13:45:33.488Z,8.78
2018-01-30T13:47:59.725Z,8.82
2018-01-30T13:50:27.082Z,8.84
2018-01-30T13:52:53.215Z,8.83
2018-01-30T13:55:19.440Z,8.86
2018-01-30T13:57:45.571Z,8.94
2018-01-30T14:00:11.767Z,9.00
2018-01-30T14:02:37.958Z,9.03
2018-01-30T14:05:04.113Z,8.99
2018-01-30T14:07:30.271Z,8.98
2018-01-30T14:09:56.536Z,9.03
2018-01-30T14:12:22.699Z,9.09
2018-01-30T14:14:48.831Z,9.17
2018-01-30T14:17:15.130Z,9.21
2018-01-30T14:19:41.256Z,9.24
2018-01-30T14:22:07.355Z,9.22
2018-01-30T14:24:33.574Z,9.23
2018-01-30T14:26:59.708Z,9.19
2018-01-30T14:29:25.830Z,9.15
2018-01-30T14:31:52.075Z,9.12
2018-01-30T14:34:18.221Z,9.07
2018-01-30T14:36:44.385Z,9.13
2018-01-30T14:39:10.558Z,9.15
2018-01-30T14:41:36.693Z,9.17
2018-01-30T14:44:02.863Z,9.17
2018-01-30T14:46:29.019Z,9.20
2018-01-30T14:48:55.208Z,9.24
2018-01-30T14:51:21.408Z,9.27
2018-01-30T14:53:47.559Z,9.25
2018-01-30T14:56:13.805Z,9.29
2018-01-30T14:58:39.962Z,9.28
2018-01-30T15:01:06.166Z,9.29
2018-01-30T15:03:32.294Z,9.29
2018-01-30T15:05:58.464Z,9.26
2018-01-30T15:08:24.706Z,9.26
2018-01-30T15:10:50.873Z,9.23
2018-01-30T15:13:17.065Z,9.19
2018-01-30T15:15:43.297Z,9.18
2018-01-30T15:18:09.633Z,9.16
2018-01-30T15:20:35.787Z,9.16
2018-01-30T15:23:01.927Z,9.23
2018-01-30T15:25:28.100Z,9.28
2018-01-30T15:27:54.245Z,9.35
2018-01-30T15:30:20.436Z,9.38
2018-01-30T15:32:46.588Z,9.43
2018-01-30T15:35:12.750Z,9.46
2018-01-30T15:37:38.944Z,9.46
2018-01-30T15:40:05.210Z,9.43
2018-01-30T15:42:31.334Z,9.36
2018-01-30T15:44:57.490Z,9.27
2018-01-30T15:47:24.718Z,9.24
2018-01-30T15:49:50.872Z,9.13
2018-01-30T15:52:17.013Z,9.04
2018-01-30T15:54:43.164Z,8.97
2018-01-30T15:57:09.304Z,8.89
2018-01-30T15:59:35.457Z,8.83
2018-01-30T16:02:01.735Z,8.79
2018-01-30T16:04:28.040Z,8.71
2018-01-30T16:06:54.216Z,8.66
2018-01-30T16:09:20.490Z,8.61
2018-01-30T16:11:46.629Z,8.57
2018-01-30T16:14:12.800Z,8.56
2018-01-30T16:16:38.942Z,8.52
2018-01-30T16:19:05.143Z,8.49
2018-01-30T16:21:31.265Z,8.45
2018-01-30T16:23:57.449Z,8.41
2018-01-30T16:26:23.598Z,8.37
2018-01-30T16:28:49.919Z,8.30
2018-01-30T16:31:16.138Z,8.21
2018-01-30T16:33:42.285Z,8.13
2018-01-30T16:36:08.499Z,8.06
2018-01-30T16:38:34.672Z,8.02
2018-01-30T16:41:00.848Z,7.95
2018-01-30T16:43:27.027Z,7.88
2018-01-30T16:45:53.236Z,7.81
2018-01-30T16:48:19.444Z,7.72
2018-01-30T16:50:45.579Z,7.62
2018-01-30T16:53:11.748Z,7.57
2018-01-30T16:55:38.111Z,7.47
2018-01-30T16:58:04.257Z,7.37
2018-01-30T17:00:30.439Z,7.28
2018-01-30T17:02:56.715Z,7.19
2018-01-30T17:05:22.937Z,7.13
2018-01-30T17:07:49.130Z,7.08
2018-01-30T17:10:15.389Z,7.02
2018-01-30T17:12:41.553Z,6.97
2018-01-30T17:15:07.727Z,6.93
2018-01-30T17:17:33.997Z,6.87
2018-01-30T17:20:00.162Z,6.79
2018-01-30T17:22:26.329Z,6.68
2018-01-30T17:24:52.568Z,6.59
2018-01-30T17:27:18.816Z,6.53
2018-01-30T17:29:45.010Z,6.51
2018-01-30T17:32:11.286Z,6.45
2018-01-30T17:34:37.459Z,6.42
2018-01-30T17:37:03.644Z,6.38
2018-01-30T17:39:29.835Z,6.34
2018-01-30T17:41:56.023Z,6.28
2018-01-30T17:44:22.213Z,6.22
2018-01-30T17:46:48.479Z,6.16
2018-01-30T17:49:14.729Z,6.10
2018-01-30T17:51:40.966Z,6.05
2018-01-30T17:54:07.214Z,5.97
2018-01-30T17:56:33.408Z,5.91
2018-01-30T17:58:59.602Z,5.87
2018-01-30T18:01:25.830Z,5.82
2018-01-30T18:03:51.997Z,5.78
2018-01-30T18:06:18.148Z,5.77
2018-01-30T18:08:44.322Z,5.79
2018-01-30T18:11:10.513Z,5.81
2018-01-30T18:13:36.680Z,5.83
2018-01-30T18:16:02.865Z,5.85
2018-01-30T18:18:29.233Z,5.86
2018-01-30T18:20:55.385Z,5.87
2018-01-30T18:23:21.565Z,5.89
2018-01-30T18:25:47.755Z,5.92
2018-01-30T18:28:13.970Z,5.96
2018-01-30T18:30:40.161Z,6.00
2018-01-30T18:33:06.332Z,6.04
2018-01-30T18:35:32.480Z,6.08
2018-01-30T18:37:58.690Z,6.08
2018-01-30T18:40:24.840Z,6.07
2018-01-30T18:42:51.027Z,6.08
2018-01-30T18:45:17.263Z,6.12
2018-01-30T18:47:43.532Z,6.13
2018-01-30T18:50:09.672Z,6.13
2018-01-30T18:52:35.960Z,6.10
2018-01-30T18:55:02.167Z,6.08
2018-01-30T18:57:28.389Z,6.09
2018-01-30T18:59:54.577Z,6.12
2018-01-30T19:02:20.827Z,6.15
2018-01-30T19:04:47.018Z,6.19
2018-01-30T19:07:13.189Z,6.25
2018-01-30T19:09:39.593Z,6.29
2018-01-30T19:12:05.854Z,6.33
2018-01-30T19:14:32.038Z,6.37
2018-01-30T19:16:58.187Z,6.43
2018-01-30T19:19:24.501Z,6.51
2018-01-30T19:21:51.505Z,6.56
2018-01-30T19:24:17.709Z,6.57
2018-01-30T19:26:43.961Z,6.56
2018-01-30T19:29:10.131Z,6.57
2018-01-30T19:31:36.317Z,6.55
2018-01-30T19:34:02.570Z,6.56
2018-01-30T19:36:28.720Z,6.58
2018-01-30T19:38:54.912Z,6.59
2018-01-30T19:41:21.143Z,6.57
2018-01-30T19:43:47.346Z,6.54
2018-01-30T19:46:13.508Z,6.47
2018-01-30T19:48:39.725Z,6.41
2018-01-30T19:51:05.897Z,6.34
2018-01-30T19:53:32.083Z,6.24
2018-01-30T19:55:58.299Z,6.17
2018-01-30T19:58:24.528Z,6.12
2018-01-30T20:00:50.722Z,6.04
2018-01-30T20:03:16.922Z,5.99
2018-01-30T20:05:43.149Z,5.94
2018-01-30T20:08:09.372Z,5.90
2018-01-30T20:10:35.599Z,5.88
2018-01-30T20:13:01.781Z,5.85
2018-01-30T20:15:27.948Z,5.84
2018-01-30T20:17:54.183Z,5.81
2018-01-30T20:20:20.377Z,5.76
2018-01-30T20:22:46.599Z,5.71
2018-01-30T20:25:12.989Z,5.65
2018-01-30T20:27:39.188Z,5.62
2018-01-30T20:30:05.365Z,5.59
2018-01-30T20:32:31.576Z,5.56
2018-01-30T20:34:57.792Z,5.54
2018-01-30T20:37:24.025Z,5.49
2018-01-30T20:39:50.224Z,5.46
2018-01-30T20:42:16.365Z,5.44
2018-01-30T20:44:42.553Z,5.40
2018-01-30T20:47:08.765Z,5.38
2018-01-30T20:49:34.986Z,5.36
2018-01-30T20:52:01.218Z,5.35
2018-01-30T20:54:27.402Z,5.34
2018-01-30T20:56:54.043Z,5.34
2018-01-30T20:59:20.402Z,5.37
2018-01-30T21:01:46.605Z,5.40
2018-01-30T21:04:12.889Z,5.48
2018-01-30T21:06:39.055Z,5.58
2018-01-30T21:09:05.242Z,5.67
2018-01-30T21:11:31.653Z,5.77
2018-01-30T21:13:57.829Z,5.87
2018-01-30T21:16:24.138Z,5.95
2018-01-30T21:18:50.378Z,6.06
2018-01-30T21:21:16.619Z,6.17
2018-01-30T21:23:43.047Z,6.24
2018-01-30T21:26:09.242Z,6.32
2018-01-30T21:28:35.437Z,6.42
2018-01-30T21:31:01.655Z,6.50
2018-01-30T21:33:27.942Z,6.59
2018-01-30T21:35:54.088Z,6.69
2018-01-30T21:38:20.230Z,6.77
2018-01-30T21:40:46.388Z,6.84
2018-01-30T21:43:12.562Z,6.92
2018-01-30T21:45:38.779Z,6.99
2018-01-30T21:48:04.979Z,7.05
2018-01-30T21:50:31.159Z,7.10
2018-01-30T21:52:57.307Z,7.16
2018-01-30T21:55:23.486Z,7.20
2018-01-30T21:57:49.662Z,7.24
2018-01-30T22:00:15.828Z,7.31
2018-01-30T22:02:42.011Z,7.36
2018-01-30T22:05:08.260Z,7.40
2018-01-30T22:07:34.391Z,7.45
2018-01-30T22:10:00.638Z,7.49
2018-01-30T22:12:26.834Z,7.52
2018-01-30T22:14:53.002Z,7.55
2018-01-30T22:17:19.236Z,7.58
2018-01-30T22:19:45.496Z,7.61
2018-01-30T22:22:11.655Z,7.63
2018-01-30T22:24:37.855Z,7.65
2018-01-30T22:27:04.061Z,7.68
2018-01-30T22:29:30.223Z,7.70
2018-01-30T22:31:56.431Z,7.74
2018-01-30T22:34:22.620Z,7.77
2018-01-30T22:36:48.792Z,7.78
2018-01-30T22:39:14.961Z,7.79
2018-01-30T22:41:41.088Z,7.81
2018-01-30T22:44:07.316Z,7.83
2018-01-30T22:46:33.552Z,7.85
